Time;durP1;ratioP1;P1;durP2;ratioP2;P2;SDS_P1;SDS_P2;PMS_P1;PMS_P2;Temp;Humidity;BMP_temperature;BMP_pressure;BME280_temperature;BME280_humidity;BME280_pressure;Samples;Min_cycle;Max_cycle;Signal;HPM_P1;HPM_P2
2022/01/02 00:00:22;;;;;;;;;21.60;20.40;;;;;14.46;59.69;101409.00;2064929;28;48415;-54
2022/01/02 00:01:24;;;;;;;;;23.40;21.80;;;;;14.48;59.63;101414.28;2055307;28;47522;-55
2022/01/02 00:02:28;;;;;;;;;26.20;23.60;;;;;14.48;59.71;101414.28;2096478;27;47583;-56
2022/01/02 00:03:34;;;;;;;;;23.00;21.40;;;;;14.49;59.57;101416.06;2070492;27;47123;-55
2022/01/02 00:04:36;;;;;;;;;18.20;18.20;;;;;14.48;59.26;101409.81;2055043;28;48337;-54
2022/01/02 00:05:38;;;;;;;;;26.40;24.00;;;;;14.47;59.45;101401.84;2073396;27;48337;-55
2022/01/02 00:06:45;;;;;;;;;20.20;20.20;;;;;14.48;59.33;101409.81;2073146;27;48179;-55
2022/01/02 00:08:20;;;;;;;;;20.40;19.80;;;;;14.49;59.41;101410.72;2094366;27;47782;-55
2022/01/02 00:09:31;;;;;;;;;22.00;21.80;;;;;14.49;59.53;101418.75;2062342;28;47469;-55
2022/01/02 00:10:56;;;;;;;;;22.80;22.20;;;;;14.49;59.47;101419.63;2067267;28;48303;-54
2022/01/02 00:12:03;;;;;;;;;19.40;17.60;;;;;14.48;59.48;101411.63;2077507;28;46348;-54
2022/01/02 00:13:06;;;;;;;;;23.00;21.00;;;;;14.48;59.69;101409.81;2090318;28;47345;-55
2022/01/02 00:14:13;;;;;;;;;22.40;22.40;;;;;14.49;59.36;101408.06;2053261;28;47189;-53
2022/01/02 00:15:18;;;;;;;;;20.20;20.00;;;;;14.48;59.23;101403.59;2074607;28;48087;-55
2022/01/02 00:16:18;;;;;;;;;17.20;16.80;;;;;14.48;59.38;101398.25;2058395;28;47543;-54
2022/01/02 00:17:23;;;;;;;;;19.00;17.75;;;;;14.49;59.33;101405.38;2096499;27;47103;-55
2022/01/02 00:18:27;;;;;;;;;23.40;22.80;;;;;14.48;59.53;101406.28;2071779;27;47333;-56
2022/01/02 00:19:30;;;;;;;;;21.60;21.40;;;;;14.48;59.26;101403.59;2055209;28;47261;-56
2022/01/02 00:20:43;;;;;;;;;22.80;21.40;;;;;14.47;59.68;101404.53;2077615;27;48138;-54
2022/01/02 00:21:46;;;;;;;;;22.80;22.00;;;;;14.45;59.44;101404.56;2082854;28;49071;-54
2022/01/02 00:22:50;;;;;;;;;20.80;20.80;;;;;14.45;58.96;101404.56;2091652;27;48210;-55
2022/01/02 00:23:59;;;;;;;;;20.80;20.80;;;;;14.42;59.14;101405.50;2057783;27;47695;-51
2022/01/02 00:25:00;;;;;;;;;24.20;22.40;;;;;14.41;59.13;101401.09;2084517;28;46321;-54
2022/01/02 00:26:05;;;;;;;;;23.40;22.60;;;;;14.42;59.49;101404.63;2061617;27;48390;-54
2022/01/02 00:27:08;;;;;;;;;21.80;21.80;;;;;14.42;59.48;101410.84;2097098;27;47962;-55
2022/01/02 00:28:11;;;;;;;;;18.60;18.60;;;;;14.42;59.25;101415.31;2084187;27;47428;-55
2022/01/02 00:29:12;;;;;;;;;20.60;19.60;;;;;14.42;59.22;101410.84;2058191;28;45455;-55
2022/01/02 00:30:13;;;;;;;;;22.60;21.40;;;;;14.43;59.58;101414.38;2091647;27;47070;-55
2022/01/02 00:31:14;;;;;;;;;25.00;22.25;;;;;14.43;59.65;101419.72;2077143;28;47291;-55
2022/01/02 00:32:15;;;;;;;;;20.20;19.60;;;;;14.43;59.30;101420.59;2096630;27;46019;-56
2022/01/02 00:33:19;;;;;;;;;21.25;21.00;;;;;14.43;59.58;101428.63;2081697;28;45483;-55
2022/01/02 00:34:20;;;;;;;;;23.60;22.80;;;;;14.44;59.57;101416.16;2058957;28;47576;-56
2022/01/02 00:35:22;;;;;;;;;21.20;20.20;;;;;14.44;59.48;101424.19;2055202;28;47604;-55
2022/01/02 00:36:22;;;;;;;;;22.60;22.20;;;;;14.44;59.38;101418.84;2090026;28;47471;-53
2022/01/02 00:37:24;;;;;;;;;21.00;20.25;;;;;14.45;59.33;101427.72;2092846;27;47356;-55
2022/01/02 00:38:24;;;;;;;;;21.60;20.00;;;;;14.45;59.38;101420.59;2056819;27;45609;-56
2022/01/02 00:39:25;;;;;;;;;17.00;16.50;;;;;14.46;59.28;101421.47;2065146;27;48228;-55
2022/01/02 00:40:25;;;;;;;;;19.25;19.25;;;;;14.46;59.45;101418.78;2056523;28;47332;-55
2022/01/02 00:41:34;;;;;;;;;22.50;21.25;;;;;14.47;59.12;101417.88;2097773;28;48474;-55
2022/01/02 00:42:38;;;;;;;;;23.20;21.80;;;;;14.46;59.47;101406.31;2092653;27;47544;-55
2022/01/02 00:43:46;;;;;;;;;21.80;21.80;;;;;14.48;58.91;101409.81;2068858;27;47404;-55
2022/01/02 00:44:57;;;;;;;;;25.60;25.20;;;;;14.47;59.36;101409.88;2065472;27;47687;-55
2022/01/02 00:45:59;;;;;;;;;21.60;20.40;;;;;14.47;59.66;101407.19;2085726;28;47212;-56
2022/01/02 00:47:23;;;;;;;;;25.60;21.80;;;;;14.47;59.31;101404.53;2094133;27;47936;-55
2022/01/02 00:48:29;;;;;;;;;23.00;23.00;;;;;14.47;59.08;101401.84;2078464;27;48165;-56
2022/01/02 00:49:30;;;;;;;;;24.00;22.60;;;;;14.46;59.24;101403.66;2050807;28;48235;-56
2022/01/02 00:50:38;;;;;;;;;21.60;20.20;;;;;14.47;59.10;101404.53;2073066;28;47371;-55
2022/01/02 00:51:47;;;;;;;;;23.60;23.40;;;;;14.46;59.37;101403.66;2096362;27;46917;-55
2022/01/02 00:52:49;;;;;;;;;22.20;22.20;;;;;14.45;59.52;101409.91;2097364;27;48096;-54
2022/01/02 00:53:50;;;;;;;;;24.60;23.00;;;;;14.46;59.31;101416.13;2066915;27;48274;-52
2022/01/02 00:54:55;;;;;;;;;21.80;21.80;;;;;14.45;59.44;101417.03;2055215;28;46997;-55
2022/01/02 00:55:57;;;;;;;;;21.00;20.40;;;;;14.45;59.36;101417.03;2061066;28;48200;-55
2022/01/02 00:57:08;;;;;;;;;23.60;23.60;;;;;14.45;59.22;101419.72;2073017;28;48502;-57
2022/01/02 00:58:16;;;;;;;;;28.00;26.20;;;;;14.43;59.52;101423.28;2089690;27;47264;-55
2022/01/02 00:59:28;;;;;;;;;24.00;24.00;;;;;14.43;59.45;101414.38;2053502;28;47373;-55
2022/01/02 01:00:30;;;;;;;;;20.00;19.50;;;;;14.42;59.30;101415.31;2067945;28;47642;-55
2022/01/02 01:01:34;;;;;;;;;21.20;19.20;;;;;14.43;59.25;101420.59;2060371;28;48062;-53
2022/01/02 01:02:39;;;;;;;;;24.60;22.40;;;;;14.43;59.47;101411.72;2097561;27;47141;-53
2022/01/02 01:03:41;;;;;;;;;22.60;22.60;;;;;14.42;59.11;101402.84;2066287;27;47185;-56
2022/01/02 01:04:43;;;;;;;;;18.60;17.80;;;;;14.42;59.56;101394.81;2057771;28;48271;-55
2022/01/02 01:05:45;;;;;;;;;21.00;21.00;;;;;14.43;59.49;101393.91;2070388;27;47399;-56
2022/01/02 01:06:49;;;;;;;;;25.00;24.20;;;;;14.44;59.55;101392.13;2076574;27;48168;-55
2022/01/02 01:07:54;;;;;;;;;24.00;21.00;;;;;14.42;59.38;101384.13;2093013;27;47490;-54
2022/01/02 01:08:57;;;;;;;;;24.60;23.40;;;;;14.41;59.16;101382.38;2063382;28;48219;-55
2022/01/02 01:09:59;;;;;;;;;20.00;20.00;;;;;14.39;59.38;101372.66;2062891;27;47369;-54
2022/01/02 01:11:05;;;;;;;;;21.80;21.80;;;;;14.40;59.64;101371.75;2058961;27;48605;-55
2022/01/02 01:12:05;;;;;;;;;21.40;20.80;;;;;14.39;59.35;101367.31;2084964;28;48627;-54
2022/01/02 01:13:08;;;;;;;;;20.75;20.00;;;;;14.38;59.46;101377.13;2087120;27;46320;-55
2022/01/02 01:14:09;;;;;;;;;21.80;21.80;;;;;14.38;59.39;101387.81;2054810;28;48471;-56
2022/01/02 01:15:09;;;;;;;;;23.75;21.00;;;;;14.38;59.44;101382.47;2075762;27;48399;-55
2022/01/02 01:16:10;;;;;;;;;20.50;20.50;;;;;14.37;59.28;101378.06;2055384;28;45450;-56
2022/01/02 01:17:13;;;;;;;;;24.00;22.00;;;;;14.38;59.51;101368.25;2095418;28;47138;-55
2022/01/02 01:18:14;;;;;;;;;22.00;22.00;;;;;14.37;59.40;101359.38;2080039;27;48001;-57
2022/01/02 01:19:14;;;;;;;;;21.75;18.50;;;;;14.38;59.39;101355.78;2054865;28;47558;-56
2022/01/02 01:20:15;;;;;;;;;19.50;19.25;;;;;14.39;59.23;101351.31;2083301;28;48533;-55
2022/01/02 01:21:16;;;;;;;;;24.60;23.60;;;;;14.38;59.85;101345.09;2064292;28;47342;-53
2022/01/02 01:22:17;;;;;;;;;23.00;21.80;;;;;14.39;59.38;101343.28;2097243;27;47343;-57
2022/01/02 01:23:18;;;;;;;;;26.00;23.50;;;;;14.39;59.42;101330.81;2077469;27;45313;-54
2022/01/02 01:24:19;;;;;;;;;19.00;19.00;;;;;14.40;59.58;101339.72;2055969;28;46176;-55
2022/01/02 01:25:21;;;;;;;;;20.80;19.80;;;;;14.40;59.43;101331.69;2086173;27;47268;-53
2022/01/02 01:26:22;;;;;;;;;22.60;21.60;;;;;14.41;59.35;101338.78;2074349;28;47711;-54
2022/01/02 01:27:22;;;;;;;;;23.25;22.50;;;;;14.41;59.26;101331.66;2097862;27;47086;-58
2022/01/02 01:28:23;;;;;;;;;26.00;24.75;;;;;14.41;59.65;101328.97;2073664;27;47079;-55
2022/01/02 01:29:23;;;;;;;;;20.75;20.00;;;;;14.42;59.30;101328.06;2064972;28;47344;-54
2022/01/02 01:30:27;;;;;;;;;22.00;20.00;;;;;14.44;59.43;101330.72;2084505;27;48151;-55
2022/01/02 01:31:27;;;;;;;;;23.00;21.60;;;;;14.43;59.54;101331.59;2085438;28;45202;-54
2022/01/02 01:32:28;;;;;;;;;18.00;15.50;;;;;14.43;59.30;101331.59;2091848;27;47235;-55
2022/01/02 01:33:28;;;;;;;;;19.50;19.50;;;;;14.42;59.28;101330.72;2075624;27;46859;-55
2022/01/02 01:34:29;;;;;;;;;19.00;17.75;;;;;14.42;59.18;101348.53;2057555;28;47681;-55
2022/01/02 01:35:29;;;;;;;;;17.75;17.00;;;;;14.41;59.37;101353.00;2055131;28;48226;-55
2022/01/02 01:36:30;;;;;;;;;24.75;22.25;;;;;14.40;59.14;101356.59;2093980;28;48011;-57
2022/01/02 01:37:31;;;;;;;;;21.50;21.50;;;;;14.40;59.35;101358.41;2090044;27;48059;-54
2022/01/02 01:38:32;;;;;;;;;20.25;20.25;;;;;14.40;59.27;101359.28;2053359;28;47843;-53
2022/01/02 01:39:32;;;;;;;;;20.25;20.25;;;;;14.39;59.75;101360.19;2065012;28;47302;-56
2022/01/02 01:40:38;;;;;;;;;23.00;22.75;;;;;14.39;59.44;101354.84;2060586;28;46864;-54
2022/01/02 01:41:39;;;;;;;;;25.20;22.80;;;;;14.38;59.35;101355.78;2097255;28;46283;-55
2022/01/02 01:42:44;;;;;;;;;19.00;17.40;;;;;14.38;59.17;101347.75;2093457;27;47673;-54
2022/01/02 01:44:06;;;;;;;;;24.40;24.20;;;;;14.38;59.37;101338.88;2067407;27;47139;-54
2022/01/02 01:46:22;;;;;;;;;21.80;21.20;;;;;14.36;59.56;101338.91;2046593;28;47482;-54
2022/01/02 01:47:23;;;;;;;;;21.00;19.50;;;;;14.36;59.19;101341.59;2073398;28;47084;-56
2022/01/02 01:48:23;;;;;;;;;22.00;19.00;;;;;14.36;59.21;101343.38;2079014;27;48010;-54
2022/01/02 01:49:27;;;;;;;;;25.75;24.00;;;;;14.35;59.51;101333.59;2068883;28;47588;-54
2022/01/02 01:50:34;;;;;;;;;20.60;19.40;;;;;14.35;59.21;101342.47;2060817;28;47476;-53
2022/01/02 01:51:34;;;;;;;;;21.60;20.60;;;;;14.35;59.38;101345.16;2097501;27;48490;-54
2022/01/02 01:52:35;;;;;;;;;22.25;19.25;;;;;14.34;59.40;101348.75;2092920;27;47170;-57
2022/01/02 01:53:35;;;;;;;;;17.75;17.00;;;;;14.35;59.15;101344.28;2077386;27;47459;-54
2022/01/02 01:54:35;;;;;;;;;21.50;21.50;;;;;14.35;59.04;101346.94;2054778;28;48347;-54
2022/01/02 01:55:38;;;;;;;;;23.75;22.25;;;;;14.34;59.31;101340.72;2059807;28;47353;-55
2022/01/02 01:56:39;;;;;;;;;20.00;19.00;;;;;14.33;59.26;101328.31;2057001;28;47314;-54
2022/01/02 01:57:40;;;;;;;;;19.60;18.40;;;;;14.34;59.45;101321.16;2097349;27;48187;-54
2022/01/02 01:58:40;;;;;;;;;21.50;21.25;;;;;14.35;59.39;101320.25;2068351;27;47943;-54
2022/01/02 01:59:41;;;;;;;;;22.00;21.00;;;;;14.34;59.46;101313.16;2054638;27;48341;-54
2022/01/02 02:00:42;;;;;;;;;23.00;22.50;;;;;14.33;59.31;101314.06;2067590;28;47054;-56
2022/01/02 02:01:43;;;;;;;;;21.75;20.75;;;;;14.32;59.52;101315.00;2066907;28;47032;-54
2022/01/02 02:02:45;;;;;;;;;19.80;19.80;;;;;14.31;59.58;101308.78;2097282;27;47156;-54
2022/01/02 02:03:46;;;;;;;;;21.80;20.20;;;;;14.31;59.60;101311.47;2062552;27;47605;-54
2022/01/02 02:04:46;;;;;;;;;20.60;20.60;;;;;14.31;59.61;101307.91;2060555;28;48560;-54
2022/01/02 02:05:47;;;;;;;;;22.25;22.25;;;;;14.28;59.60;101311.53;2068913;27;48042;-52
2022/01/02 02:06:47;;;;;;;;;20.25;19.25;;;;;14.27;59.65;101317.81;2076354;28;47964;-55
2022/01/02 02:07:48;;;;;;;;;21.50;21.50;;;;;14.27;59.38;101314.25;2093773;27;46633;-57
2022/01/02 02:08:51;;;;;;;;;20.50;20.25;;;;;14.26;59.57;101310.72;2067419;28;47970;-56
2022/01/02 02:10:13;;;;;;;;;20.20;19.00;;;;;14.26;59.62;101307.19;2058496;28;48350;-57
2022/01/02 02:11:14;;;;;;;;;19.20;18.20;;;;;14.26;59.71;101317.84;2046705;28;48657;-54
2022/01/02 02:12:14;;;;;;;;;21.40;19.80;;;;;14.25;59.52;101316.09;2091718;28;47212;-56
2022/01/02 02:13:15;;;;;;;;;18.75;18.00;;;;;14.25;59.50;101316.97;2080724;27;47294;-55
2022/01/02 02:14:16;;;;;;;;;20.50;20.00;;;;;14.25;59.60;101311.63;2054687;27;48063;-54
2022/01/02 02:15:17;;;;;;;;;18.60;18.60;;;;;14.25;59.46;101306.31;2075576;28;47602;-58
2022/01/02 02:16:18;;;;;;;;;20.60;20.60;;;;;14.25;59.44;101303.63;2056927;27;47127;-55
2022/01/02 02:17:18;;;;;;;;;18.25;17.50;;;;;14.24;59.32;101298.34;2097337;27;47410;-54
2022/01/02 02:18:19;;;;;;;;;21.25;19.50;;;;;14.24;59.59;101304.56;2076858;27;48426;-56
2022/01/02 02:19:19;;;;;;;;;17.50;17.50;;;;;14.25;59.67;101297.41;2054660;28;47381;-56
2022/01/02 02:20:23;;;;;;;;;22.25;20.75;;;;;14.22;59.75;101295.69;2082467;28;46680;-55
2022/01/02 02:21:41;;;;;;;;;20.40;20.00;;;;;14.22;59.68;101297.47;2068002;28;48512;-57
2022/01/02 02:22:46;;;;;;;;;21.60;20.60;;;;;14.22;59.76;101292.13;2091256;27;48098;-56
2022/01/02 02:23:46;;;;;;;;;16.40;16.40;;;;;14.21;59.51;101287.72;2063238;27;47253;-53
2022/01/02 02:24:46;;;;;;;;;18.25;17.75;;;;;14.21;59.34;101290.38;2074249;28;48015;-55
2022/01/02 02:25:47;;;;;;;;;19.75;19.75;;;;;14.21;59.79;101287.72;2066296;27;47740;-53
2022/01/02 02:26:49;;;;;;;;;18.50;18.25;;;;;14.21;59.59;101287.72;2090783;28;47357;-54
2022/01/02 02:27:59;;;;;;;;;16.20;15.60;;;;;14.21;59.76;101287.72;2089890;27;46933;-54
2022/01/02 02:29:01;;;;;;;;;18.40;18.40;;;;;14.21;59.39;101275.25;2054093;27;47166;-53
2022/01/02 02:30:04;;;;;;;;;17.20;17.20;;;;;14.22;59.45;101279.66;2089287;28;48243;-54
2022/01/02 02:31:04;;;;;;;;;18.80;18.40;;;;;14.23;59.51;101269.84;2068161;28;46345;-55
2022/01/02 02:32:05;;;;;;;;;21.00;19.00;;;;;14.24;59.77;101279.66;2096261;27;48393;-56
2022/01/02 02:33:07;;;;;;;;;20.75;19.25;;;;;14.24;59.43;101271.63;2085051;28;47647;-54
2022/01/02 02:34:08;;;;;;;;;17.80;17.80;;;;;14.25;59.74;101276.06;2057701;27;45722;-54
2022/01/02 02:35:08;;;;;;;;;17.75;17.75;;;;;14.25;59.79;101273.38;2096589;27;47519;-54
2022/01/02 02:36:09;;;;;;;;;19.75;19.00;;;;;14.25;59.66;101274.25;2076426;28;47345;-54
2022/01/02 02:37:09;;;;;;;;;19.25;19.25;;;;;14.25;59.57;101268.06;2093922;27;48517;-54
2022/01/02 02:38:11;;;;;;;;;18.75;17.00;;;;;14.25;59.51;101274.25;2063068;28;46104;-52
2022/01/02 02:39:11;;;;;;;;;18.20;18.20;;;;;14.26;59.24;101269.81;2062568;28;47460;-54
2022/01/02 02:40:15;;;;;;;;;20.25;20.00;;;;;14.26;59.36;101265.34;2054508;28;48638;-54
2022/01/02 02:41:15;;;;;;;;;18.80;18.00;;;;;14.27;59.37;101266.22;2086673;28;48405;-55
2022/01/02 02:42:40;;;;;;;;;19.25;19.25;;;;;14.27;59.27;101267.09;2089043;27;47562;-54
2022/01/02 02:43:50;;;;;;;;;16.40;15.60;;;;;14.28;59.54;101263.50;2068543;27;48005;-56
2022/01/02 02:44:58;;;;;;;;;16.00;16.00;;;;;14.27;59.33;101260.88;2063359;28;47652;-55
2022/01/02 02:49:56;;;;;;;;;15.60;14.40;;;;;14.25;59.08;101236.88;2059066;28;47099;-56
2022/01/02 02:50:57;;;;;;;;;17.50;16.25;;;;;14.24;59.31;101235.13;2086705;28;47888;-54
2022/01/02 02:52:06;;;;;;;;;19.00;19.00;;;;;14.25;59.18;101239.56;2090152;27;47138;-54
2022/01/02 02:53:07;;;;;;;;;17.20;16.20;;;;;14.26;59.48;101235.09;2091191;27;48071;-55
2022/01/02 02:54:08;;;;;;;;;12.00;9.67;;;;;14.25;59.19;101242.22;2059011;28;46888;-54
2022/01/02 02:55:08;;;;;;;;;19.00;18.00;;;;;14.25;59.30;101242.22;2060205;27;48350;-55
2022/01/02 02:56:25;;;;;;;;;17.00;17.00;;;;;14.25;59.04;101228.88;2054442;28;45466;-55
2022/01/02 02:57:25;;;;;;;;;19.40;17.80;;;;;14.26;59.07;101227.09;2089647;28;47277;-56
2022/01/02 02:59:35;;;;;;;;;19.60;18.80;;;;;14.26;59.43;101229.75;2050597;28;48302;-55
2022/01/02 03:00:36;;;;;;;;;17.40;15.00;;;;;14.25;58.91;101223.53;2065964;27;46052;-54
2022/01/02 03:01:40;;;;;;;;;18.50;18.50;;;;;14.26;59.18;101229.75;2060724;27;47112;-54
2022/01/02 03:02:40;;;;;;;;;18.80;18.80;;;;;14.26;59.18;101227.09;2096922;27;46465;-55
2022/01/02 03:03:42;;;;;;;;;16.75;16.00;;;;;14.25;59.40;101223.53;2066789;27;48015;-54
2022/01/02 03:04:42;;;;;;;;;15.20;15.20;;;;;14.25;59.33;101217.31;2055729;28;48724;-53
2022/01/02 03:05:43;;;;;;;;;15.00;13.75;;;;;14.24;59.18;101221.78;2071812;27;46128;-55
2022/01/02 03:06:43;;;;;;;;;22.00;18.50;;;;;14.24;59.02;101227.13;2072518;28;47298;-53
2022/01/02 03:07:44;;;;;;;;;18.00;18.00;;;;;14.25;59.24;101225.34;2095841;27;48019;-54
2022/01/02 03:08:46;;;;;;;;;16.67;16.67;;;;;14.25;58.93;101225.34;2066338;28;46215;-55
2022/01/02 03:09:49;;;;;;;;;17.00;16.75;;;;;14.24;59.09;101227.13;2055142;28;47021;-54
2022/01/02 03:10:50;;;;;;;;;13.60;13.60;;;;;14.25;59.37;101228.00;2067133;27;48296;-54
2022/01/02 03:11:50;;;;;;;;;15.50;15.50;;;;;14.24;59.48;101229.81;2074605;28;47215;-54
2022/01/02 03:12:51;;;;;;;;;17.50;17.50;;;;;14.24;58.86;101231.59;2097198;27;47529;-54
2022/01/02 03:13:54;;;;;;;;;14.75;14.00;;;;;14.23;59.30;101232.50;2054996;27;47036;-57
2022/01/02 03:14:54;;;;;;;;;15.25;15.25;;;;;14.23;59.27;101229.81;2067803;28;48080;-53
2022/01/02 03:15:55;;;;;;;;;15.50;15.50;;;;;14.21;58.76;101232.53;2063408;27;46349;-56
2022/01/02 03:16:55;;;;;;;;;15.50;15.50;;;;;14.21;58.96;101237.88;2083847;28;47377;-57
2022/01/02 03:17:56;;;;;;;;;14.33;14.33;;;;;14.20;59.20;101236.13;2091485;28;47312;-53
2022/01/02 03:18:56;;;;;;;;;18.67;18.33;;;;;14.21;59.37;101234.31;2056408;27;46403;-55
2022/01/02 03:19:57;;;;;;;;;17.33;16.00;;;;;14.21;59.10;101223.66;2074435;28;46776;-55
2022/01/02 03:20:57;;;;;;;;;17.67;17.67;;;;;14.22;59.15;101217.41;2061992;27;47071;-53
2022/01/02 03:21:58;;;;;;;;;16.00;16.00;;;;;14.21;59.30;101211.19;2090873;28;46791;-55
2022/01/02 03:22:59;;;;;;;;;18.40;18.40;;;;;14.21;58.93;101205.84;2091476;27;47014;-53
2022/01/02 03:23:59;;;;;;;;;13.67;13.33;;;;;14.20;59.18;101201.44;2054293;27;47094;-55
2022/01/02 03:25:00;;;;;;;;;13.33;13.33;;;;;14.20;59.29;101195.22;2083269;28;47903;-56
2022/01/02 03:26:00;;;;;;;;;15.00;15.00;;;;;14.20;59.30;101187.19;2059453;27;47530;-55
2022/01/02 03:27:01;;;;;;;;;16.00;14.67;;;;;14.21;59.21;101194.28;2096828;27;47172;-54
2022/01/02 03:28:02;;;;;;;;;18.50;16.00;;;;;14.21;59.00;101202.28;2090421;27;48090;-55
2022/01/02 03:29:02;;;;;;;;;14.00;14.00;;;;;14.21;59.06;101204.97;2053829;28;45307;-56
2022/01/02 03:30:03;;;;;;;;;19.33;16.00;;;;;14.21;59.16;101216.53;2089421;28;47789;-54
2022/01/02 03:31:04;;;;;;;;;16.00;16.00;;;;;14.21;58.87;101227.19;2069260;28;47123;-57
2022/01/02 03:32:05;;;;;;;;;15.67;15.67;;;;;14.22;58.75;101236.06;2096024;28;48124;-56
2022/01/02 03:33:05;;;;;;;;;15.33;15.33;;;;;14.23;59.10;101243.16;2087894;28;46449;-56
2022/01/02 03:34:06;;;;;;;;;16.75;16.75;;;;;14.23;59.26;101241.41;2056702;28;48156;-55
2022/01/02 03:35:07;;;;;;;;;15.33;14.33;;;;;14.23;58.98;101236.06;2054491;28;48128;-57
2022/01/02 03:36:07;;;;;;;;;18.80;16.80;;;;;14.24;59.30;101234.28;2075645;28;46182;-57
2022/01/02 03:37:08;;;;;;;;;16.00;16.00;;;;;14.24;59.29;101240.47;2096192;27;47108;-57
2022/01/02 03:38:09;;;;;;;;;15.75;15.75;;;;;14.25;59.08;101242.22;2063572;28;48027;-53
2022/01/02 03:39:10;;;;;;;;;18.40;14.40;;;;;14.25;59.14;101233.34;2064337;28;45474;-55
2022/01/02 03:40:11;;;;;;;;;16.33;16.33;;;;;14.25;59.35;101239.56;2054122;28;48063;-54
2022/01/02 03:41:12;;;;;;;;;15.20;15.20;;;;;14.25;59.24;101239.56;2085414;28;46100;-54
2022/01/02 03:42:13;;;;;;;;;13.33;13.33;;;;;14.26;59.22;101235.09;2091427;27;47004;-54
2022/01/02 03:43:13;;;;;;;;;18.75;16.75;;;;;14.26;59.03;101235.97;2087392;27;48193;-54
2022/01/02 03:44:14;;;;;;;;;15.50;15.00;;;;;14.27;58.80;101236.84;2067151;28;46973;-52
2022/01/02 03:45:14;;;;;;;;;15.50;15.25;;;;;14.27;58.80;101228.84;2053484;28;48776;-55
2022/01/02 03:46:15;;;;;;;;;14.00;14.00;;;;;14.28;58.95;101227.91;2092766;28;47212;-55
2022/01/02 03:47:15;;;;;;;;;16.67;16.33;;;;;14.28;58.78;101228.78;2091373;27;48366;-55
2022/01/02 03:48:16;;;;;;;;;16.00;16.00;;;;;14.28;58.86;101230.59;2085353;27;46961;-55
2022/01/02 03:49:16;;;;;;;;;16.75;14.75;;;;;14.28;58.73;101227.91;2068734;28;47988;-54
2022/01/02 03:50:17;;;;;;;;;16.00;16.00;;;;;14.27;58.78;101219.03;2058369;28;47340;-54
2022/01/02 03:51:17;;;;;;;;;15.75;15.50;;;;;14.27;58.96;101229.72;2096503;27;48276;-54
2022/01/02 03:52:18;;;;;;;;;17.75;16.00;;;;;14.27;58.82;101220.81;2091118;27;48155;-51
2022/01/02 03:53:19;;;;;;;;;15.75;14.00;;;;;14.26;59.04;101221.75;2083389;27;46930;-55
2022/01/02 03:54:19;;;;;;;;;13.00;13.00;;;;;14.25;59.17;101210.19;2059865;28;47253;-53
2022/01/02 03:55:20;;;;;;;;;15.75;14.75;;;;;14.26;58.79;101209.28;2060679;27;48020;-55
2022/01/02 03:56:20;;;;;;;;;15.25;14.00;;;;;14.25;59.15;101207.53;2054487;28;47234;-56
2022/01/02 03:57:21;;;;;;;;;15.50;14.75;;;;;14.26;59.15;101211.94;2086190;28;47166;-56
2022/01/02 03:58:21;;;;;;;;;14.67;14.67;;;;;14.26;58.70;101211.06;2084181;27;47014;-55
2022/01/02 03:59:22;;;;;;;;;15.00;15.00;;;;;14.28;59.23;101215.44;2051689;28;46783;-54
2022/01/02 04:00:22;;;;;;;;;14.33;14.33;;;;;14.28;58.81;101203.88;2065148;28;48375;-55
2022/01/02 04:01:23;;;;;;;;;16.00;15.00;;;;;14.29;58.68;101206.50;2054773;28;47952;-54
2022/01/02 04:02:23;;;;;;;;;12.00;12.00;;;;;14.31;58.82;101211.78;2095043;28;48779;-54
2022/01/02 04:03:24;;;;;;;;;16.25;15.50;;;;;14.31;58.65;101204.66;2078079;27;48266;-51
2022/01/02 04:04:24;;;;;;;;;15.33;15.00;;;;;14.33;58.85;101204.59;2055343;28;47564;-55
2022/01/02 04:05:25;;;;;;;;;15.25;14.25;;;;;14.34;58.89;101201.88;2074987;28;48315;-54
2022/01/02 04:06:25;;;;;;;;;16.75;16.75;;;;;14.35;58.99;101206.31;2061214;28;47147;-55
2022/01/02 04:07:26;;;;;;;;;15.67;15.67;;;;;14.36;58.70;101210.75;2098036;27;48148;-55
2022/01/02 04:08:26;;;;;;;;;12.33;12.33;;;;;14.37;58.67;101199.16;2076400;27;48487;-57
2022/01/02 04:09:27;;;;;;;;;15.25;15.25;;;;;14.38;58.65;101198.22;2059082;28;47717;-55
2022/01/02 04:10:27;;;;;;;;;16.25;15.75;;;;;14.39;58.53;101207.13;2071267;28;48263;-55
2022/01/02 04:11:28;;;;;;;;;19.25;15.25;;;;;14.38;58.93;101203.56;2058070;28;46988;-55
2022/01/02 04:12:28;;;;;;;;;14.67;14.67;;;;;14.39;58.79;101196.44;2097976;27;47234;-53
2022/01/02 04:13:28;;;;;;;;;16.00;15.00;;;;;14.38;58.79;101200.91;2074163;27;47591;-54
2022/01/02 04:14:29;;;;;;;;;15.50;15.50;;;;;14.40;58.44;101201.72;2055077;28;47067;-54
2022/01/02 04:15:30;;;;;;;;;14.00;14.00;;;;;14.40;58.61;101201.72;2077123;28;47112;-55
2022/01/02 04:16:30;;;;;;;;;12.33;12.00;;;;;14.41;58.96;101197.25;2066309;28;48176;-56
2022/01/02 04:17:32;;;;;;;;;14.00;14.00;;;;;14.41;58.60;101199.94;2097985;27;47230;-55
2022/01/02 04:18:33;;;;;;;;;15.50;15.00;;;;;14.41;58.43;101203.47;2069763;27;47043;-50
2022/01/02 04:19:33;;;;;;;;;17.75;15.25;;;;;14.42;58.73;101201.69;2054407;27;48197;-54
2022/01/02 04:20:34;;;;;;;;;13.50;13.50;;;;;14.42;58.32;101201.69;2080022;27;46974;-56
2022/01/02 04:21:34;;;;;;;;;16.00;16.00;;;;;14.42;58.56;101209.69;2075457;27;47210;-55
2022/01/02 04:22:35;;;;;;;;;13.67;13.67;;;;;14.43;58.36;101204.31;2097823;27;45421;-56
2022/01/02 04:23:37;;;;;;;;;17.00;17.00;;;;;14.42;58.89;101189.19;2067967;27;48103;-54
2022/01/02 04:24:38;;;;;;;;;17.40;17.00;;;;;14.43;58.60;101185.59;2067285;28;47893;-55
2022/01/02 04:25:38;;;;;;;;;15.67;13.00;;;;;14.43;58.71;101177.59;2072930;27;47382;-54
2022/01/02 04:26:39;;;;;;;;;13.00;13.00;;;;;14.42;58.56;101167.84;2083748;28;46044;-55
2022/01/02 04:27:40;;;;;;;;;17.25;15.00;;;;;14.43;58.38;101161.56;2092137;27;47642;-54
2022/01/02 04:28:40;;;;;;;;;16.75;15.75;;;;;14.44;58.57;101167.81;2069863;27;48199;-55
2022/01/02 04:29:41;;;;;;;;;13.00;13.00;;;;;14.43;58.32;101172.25;2074074;28;47682;-49
2022/01/02 04:30:41;;;;;;;;;19.00;17.25;;;;;14.45;58.48;101166.03;2075115;27;46429;-54
2022/01/02 04:31:42;;;;;;;;;17.33;16.67;;;;;14.46;58.37;101167.78;2092279;28;48002;-56
2022/01/02 04:32:42;;;;;;;;;15.67;15.33;;;;;14.46;58.23;101173.13;2092669;27;47057;-54
2022/01/02 04:33:43;;;;;;;;;18.67;14.33;;;;;14.46;58.59;101183.78;2067950;27;48146;-56
2022/01/02 04:34:44;;;;;;;;;13.33;13.33;;;;;14.46;58.63;101182.00;2057052;28;46236;-55
2022/01/02 04:35:44;;;;;;;;;15.75;14.25;;;;;14.45;58.64;101163.34;2058829;28;47370;-52
2022/01/02 04:36:45;;;;;;;;;16.33;14.67;;;;;14.45;58.42;101172.25;2097941;27;46961;-56
2022/01/02 04:37:46;;;;;;;;;15.00;15.00;;;;;14.46;58.50;101173.13;2081004;27;47090;-54
2022/01/02 04:38:46;;;;;;;;;15.50;15.50;;;;;14.45;58.53;101163.34;2054779;28;47272;-53
2022/01/02 04:39:47;;;;;;;;;12.67;12.67;;;;;14.46;58.53;101183.78;2063213;28;46777;-53
2022/01/02 04:40:48;;;;;;;;;14.33;14.00;;;;;14.46;58.63;101173.13;2066673;28;47813;-54
2022/01/02 04:41:49;;;;;;;;;12.75;12.75;;;;;14.48;58.59;101171.25;2097963;27;47998;-51
2022/01/02 04:42:49;;;;;;;;;13.67;13.33;;;;;14.47;58.35;101162.38;2093511;27;47363;-54
2022/01/02 04:43:49;;;;;;;;;15.00;14.00;;;;;14.47;58.26;101165.03;2066577;27;46200;-54
2022/01/02 04:44:50;;;;;;;;;14.67;13.67;;;;;14.48;58.10;101165.91;2066153;27;48527;-54
2022/01/02 04:45:50;;;;;;;;;13.00;11.67;;;;;14.48;58.08;101158.78;2076032;28;48167;-52
2022/01/02 04:46:51;;;;;;;;;13.67;12.33;;;;;14.47;58.11;101154.38;2097810;27;47005;-51
2022/01/02 04:47:51;;;;;;;;;15.00;15.00;;;;;14.47;58.01;101151.69;2094593;27;47052;-53
2022/01/02 04:48:54;;;;;;;;;12.00;10.00;;;;;14.46;58.33;101160.63;2073802;27;47121;-53
2022/01/02 04:49:54;;;;;;;;;12.50;12.50;;;;;14.46;58.33;101157.09;2063005;27;47427;-55